createdAt,value
2019-04-22T00:01:31.177Z,72.20
2019-04-22T00:05:48.367Z,73.00
2019-04-22T00:14:00.848Z,73.20
2019-04-22T00:18:37.708Z,73.20
2019-04-22T00:22:15.259Z,73.50
2019-04-22T00:26:16.113Z,73.20
2019-04-22T00:30:34.282Z,72.60
2019-04-22T00:34:53.743Z,73.50
2019-04-22T00:39:03.366Z,73.70
2019-04-22T00:42:58.384Z,74.50
2019-04-22T00:47:07.364Z,74.40
2019-04-22T00:51:12.426Z,74.50
2019-04-22T00:55:23.444Z,74.50
2019-04-22T00:59:20.101Z,75.40
2019-04-22T01:03:25.936Z,76.10
2019-04-22T01:07:32.141Z,75.90
2019-04-22T01:11:47.195Z,75.70
2019-04-22T01:19:51.239Z,76.00
2019-04-22T01:23:47.649Z,76.20
2019-04-22T01:27:46.241Z,77.10
2019-04-22T01:31:37.111Z,76.60
2019-04-22T01:35:58.443Z,76.60
2019-04-22T01:40:12.627Z,77.70
2019-04-22T01:44:21.605Z,77.40
2019-04-22T01:48:17.976Z,76.80
2019-04-22T01:52:17.032Z,77.90
2019-04-22T01:56:25.213Z,78.20
2019-04-22T02:00:17.379Z,78.60
2019-04-22T02:04:44.556Z,78.50
2019-04-22T02:08:45.230Z,78.50
2019-04-22T02:12:43.146Z,78.40
2019-04-22T02:16:41.299Z,79.40
2019-04-22T02:20:45.476Z,78.70
2019-04-22T02:24:50.923Z,79.30
2019-04-22T02:29:07.892Z,79.80
2019-04-22T02:33:30.790Z,79.80
2019-04-22T02:37:04.841Z,80.00
2019-04-22T02:45:10.040Z,79.80
2019-04-22T02:49:25.030Z,79.70
2019-04-22T02:53:44.507Z,79.70
2019-04-22T02:57:31.892Z,79.90
2019-04-22T03:01:29.806Z,80.30
2019-04-22T03:05:37.031Z,80.50
2019-04-22T03:09:38.550Z,81.00
2019-04-22T03:13:46.974Z,81.10
2019-04-22T03:17:47.337Z,81.30
2019-04-22T03:21:46.559Z,80.60
2019-04-22T03:30:41.607Z,81.90
2019-04-22T03:34:55.455Z,81.50
2019-04-22T03:38:32.864Z,82.00
2019-04-22T03:42:09.944Z,82.20
2019-04-22T03:46:32.579Z,82.00
2019-04-22T03:50:25.789Z,82.20
2019-04-22T03:58:42.932Z,82.30
2019-04-22T04:07:02.033Z,82.50
2019-04-22T04:14:58.087Z,82.60
2019-04-22T04:19:07.168Z,82.50
2019-04-22T04:23:24.271Z,82.60
2019-04-22T04:43:29.980Z,83.80
2019-04-22T04:47:44.021Z,83.80
2019-04-22T04:55:43.618Z,83.70
2019-04-22T05:00:11.172Z,83.50
2019-04-22T05:03:48.956Z,83.40
2019-04-22T05:07:48.475Z,82.60
2019-04-22T05:16:10.725Z,83.10
2019-04-22T05:19:57.398Z,83.10
2019-04-22T05:24:07.992Z,83.50
2019-04-22T05:27:58.973Z,82.30
2019-04-22T05:32:04.309Z,81.70
2019-04-22T05:36:10.561Z,80.30
2019-04-22T05:40:16.370Z,81.10
2019-04-22T05:44:20.742Z,81.20
2019-04-22T05:48:18.845Z,80.80
2019-04-22T05:52:20.163Z,81.50
2019-04-22T05:56:32.744Z,81.10
2019-04-22T06:01:01.943Z,81.40
2019-04-22T06:04:29.409Z,79.60
2019-04-22T06:08:42.467Z,80.20
2019-04-22T06:12:41.749Z,78.60
2019-04-22T06:16:53.196Z,76.50
2019-04-22T06:25:00.981Z,69.20
2019-04-22T06:29:10.630Z,66.20
2019-04-22T06:33:15.192Z,64.10
2019-04-22T06:37:20.623Z,63.00
2019-04-22T06:41:21.316Z,62.90
2019-04-22T06:45:23.448Z,61.20
2019-04-22T06:49:31.914Z,58.50
2019-04-22T06:53:31.371Z,59.00
2019-04-22T06:57:30.534Z,57.40
2019-04-22T07:01:43.251Z,58.20
2019-04-22T07:05:43.815Z,56.80
2019-04-22T07:09:48.702Z,54.60
2019-04-22T07:13:49.093Z,53.60
2019-04-22T07:17:58.287Z,52.40
2019-04-22T07:21:57.683Z,52.00
2019-04-22T07:26:06.053Z,51.00
2019-04-22T07:30:09.403Z,49.90
2019-04-22T07:34:16.581Z,48.70
2019-04-22T07:38:12.501Z,49.60
2019-04-22T07:42:17.136Z,48.40
2019-04-22T07:46:13.524Z,47.80
2019-04-22T07:54:22.084Z,46.90
2019-04-22T07:58:34.084Z,45.80
2019-04-22T08:02:37.930Z,45.50
2019-04-22T08:06:43.775Z,46.10
2019-04-22T08:10:52.272Z,45.80
2019-04-22T08:14:49.961Z,44.30
2019-04-22T08:18:45.660Z,44.30
2019-04-22T08:23:02.923Z,43.20
2019-04-22T08:26:59.300Z,43.40
2019-04-22T08:30:59.686Z,42.40
2019-04-22T08:35:27.922Z,41.50
2019-04-22T08:39:21.746Z,40.40
2019-04-22T08:43:34.116Z,40.70
2019-04-22T08:47:30.931Z,40.50
2019-04-22T08:51:25.429Z,40.60
2019-04-22T08:55:40.443Z,40.60
2019-04-22T08:59:36.929Z,39.60
2019-04-22T09:03:48.419Z,39.00
2019-04-22T09:07:46.602Z,39.00
2019-04-22T09:11:55.988Z,39.00
2019-04-22T09:15:49.402Z,38.60
2019-04-22T09:20:00.295Z,37.80
2019-04-22T09:24:08.064Z,36.30
2019-04-22T09:28:05.764Z,36.70
2019-04-22T09:32:14.862Z,36.10
2019-04-22T09:36:16.809Z,35.80
2019-04-22T09:40:31.523Z,35.00
2019-04-22T09:44:16.355Z,34.60
2019-04-22T09:48:27.793Z,34.10
2019-04-22T09:52:26.260Z,34.90
2019-04-22T09:56:32.170Z,34.30
2019-04-22T10:00:50.092Z,34.40
2019-04-22T10:04:40.134Z,33.10
2019-04-22T10:13:17.376Z,31.80
2019-04-22T10:17:15.637Z,31.30
2019-04-22T10:21:18.952Z,31.30
2019-04-22T10:25:16.334Z,30.90
2019-04-22T10:29:43.593Z,31.30
2019-04-22T10:33:22.432Z,31.80
2019-04-22T10:37:10.909Z,31.50
2019-04-22T10:41:08.379Z,30.00
2019-04-22T10:45:12.588Z,29.80
2019-04-22T10:49:15.986Z,29.60
2019-04-22T10:53:19.871Z,29.10
2019-04-22T10:57:22.109Z,29.80
2019-04-22T11:01:25.537Z,29.10
2019-04-22T11:05:28.262Z,29.10
2019-04-22T11:09:31.047Z,29.30
2019-04-22T11:13:33.806Z,29.20
2019-04-22T11:17:35.785Z,28.90
2019-04-22T11:21:37.923Z,28.80
2019-04-22T11:25:41.326Z,28.10
2019-04-22T11:29:43.832Z,28.40
2019-04-22T11:33:45.728Z,27.50
2019-04-22T11:37:48.665Z,26.80
2019-04-22T11:41:51.818Z,26.90
2019-04-22T11:45:55.312Z,27.70
2019-04-22T11:49:57.765Z,26.90
2019-04-22T11:54:01.077Z,26.60
2019-04-22T11:58:03.337Z,26.00
2019-04-22T12:02:06.727Z,26.50
2019-04-22T12:06:10.190Z,25.50
2019-04-22T12:10:24.650Z,26.60
2019-04-22T12:14:18.176Z,25.60
2019-04-22T12:18:21.195Z,25.90
2019-04-22T12:22:25.106Z,25.60
2019-04-22T12:26:28.575Z,25.20
2019-04-22T12:30:30.897Z,24.40
2019-04-22T12:34:33.336Z,25.10
2019-04-22T12:38:35.679Z,26.00
2019-04-22T12:42:37.674Z,24.70
2019-04-22T12:46:39.942Z,24.90
2019-04-22T12:50:45.627Z,26.20
2019-04-22T12:54:46.836Z,25.60
2019-04-22T12:58:49.843Z,24.80
2019-04-22T13:02:53.083Z,25.20
2019-04-22T13:06:55.556Z,24.30
2019-04-22T13:11:05.787Z,23.50
2019-04-22T13:15:04.740Z,24.00
2019-04-22T13:19:11.242Z,23.20
2019-04-22T13:23:13.843Z,23.30
2019-04-22T13:27:17.211Z,23.80
2019-04-22T13:31:20.761Z,23.90
2019-04-22T13:35:24.648Z,23.40
2019-04-22T13:39:27.230Z,22.70
2019-04-22T13:43:29.280Z,22.80
2019-04-22T13:47:46.464Z,22.80
2019-04-22T13:56:03.532Z,22.90
2019-04-22T13:59:49.946Z,22.70
2019-04-22T14:03:48.933Z,23.60
2019-04-22T14:07:53.709Z,23.50
2019-04-22T14:12:01.489Z,23.00
2019-04-22T14:15:59.415Z,22.80
2019-04-22T14:20:02.615Z,23.40
2019-04-22T14:24:05.025Z,23.10
2019-04-22T14:28:13.119Z,23.10
2019-04-22T14:32:18.854Z,23.10
2019-04-22T14:36:15.363Z,23.20
2019-04-22T14:40:18.758Z,23.40
2019-04-22T14:45:16.905Z,22.60
2019-04-22T14:48:49.668Z,23.30
2019-04-22T14:52:50.808Z,23.10
2019-04-22T14:56:34.201Z,23.60
2019-04-22T15:00:36.206Z,23.30
2019-04-22T15:04:39.282Z,23.40
2019-04-22T15:08:42.623Z,23.70
2019-04-22T15:12:49.688Z,24.10
2019-04-22T15:17:06.902Z,23.80
2019-04-22T15:21:10.998Z,24.40
2019-04-22T15:25:14.456Z,24.40
2019-04-22T15:29:17.597Z,24.40
2019-04-22T15:33:19.583Z,24.90
2019-04-22T15:37:22.310Z,24.80
2019-04-22T15:41:25.290Z,25.30
2019-04-22T15:45:28.584Z,25.70
2019-04-22T15:49:32.007Z,26.30
2019-04-22T15:53:34.095Z,26.10
2019-04-22T15:57:37.917Z,26.50
2019-04-22T16:01:41.479Z,26.50
2019-04-22T16:05:44.128Z,26.70
2019-04-22T16:09:47.731Z,26.80
2019-04-22T16:13:50.544Z,27.10
2019-04-22T16:17:53.081Z,26.20
2019-04-22T16:22:01.198Z,27.30
2019-04-22T16:26:03.372Z,27.40
2019-04-22T16:30:07.745Z,27.00
2019-04-22T16:34:11.361Z,27.60
2019-04-22T16:38:14.918Z,28.30
2019-04-22T16:42:27.901Z,28.10
2019-04-22T16:46:21.350Z,28.20
2019-04-22T16:50:23.394Z,28.20
2019-04-22T16:54:26.303Z,28.30
2019-04-22T16:58:28.936Z,28.80
2019-04-22T17:02:32.934Z,29.00
2019-04-22T17:06:37.324Z,29.30
2019-04-22T17:10:39.736Z,29.50
2019-04-22T17:14:49.864Z,29.80
2019-04-22T17:18:47.123Z,30.00
2019-04-22T17:22:49.455Z,30.20
2019-04-22T17:26:52.588Z,30.80
2019-04-22T17:30:54.640Z,31.10
2019-04-22T17:34:57.384Z,31.30
2019-04-22T17:39:14.526Z,30.70
2019-04-22T17:43:36.478Z,31.00
2019-04-22T17:47:30.247Z,31.30
2019-04-22T17:51:41.117Z,31.30
2019-04-22T17:55:54.095Z,31.20
2019-04-22T17:59:41.836Z,31.30
2019-04-22T18:03:33.860Z,31.90
2019-04-22T18:07:54.517Z,31.50
2019-04-22T18:12:01.103Z,30.90
2019-04-22T18:16:03.940Z,30.40
2019-04-22T18:19:58.352Z,30.20
2019-04-22T18:24:00.506Z,30.20
2019-04-22T18:28:17.649Z,30.10
2019-04-22T18:32:07.200Z,31.00
2019-04-22T18:36:14.030Z,30.70
2019-04-22T18:40:24.450Z,31.10
2019-04-22T18:44:27.205Z,31.30
2019-04-22T18:48:30.077Z,31.70
2019-04-22T18:52:47.003Z,32.30
2019-04-22T18:56:52.443Z,32.90
2019-04-22T19:00:46.076Z,33.20
2019-04-22T19:04:56.081Z,33.80
2019-04-22T19:09:17.108Z,33.80
2019-04-22T19:21:44.572Z,35.70
2019-04-22T19:25:23.957Z,36.60
2019-04-22T19:29:39.733Z,37.00
2019-04-22T19:33:39.912Z,37.90
2019-04-22T19:37:39.824Z,38.40
2019-04-22T19:41:53.676Z,39.40
2019-04-22T19:45:50.237Z,39.60
2019-04-22T19:49:58.117Z,40.10
2019-04-22T19:53:56.092Z,40.50
2019-04-22T19:57:54.299Z,40.80
2019-04-22T20:02:04.372Z,41.20
2019-04-22T20:06:26.869Z,41.50
2019-04-22T20:10:29.629Z,41.80
2019-04-22T20:14:41.875Z,42.90
2019-04-22T20:18:48.659Z,42.80
2019-04-22T20:22:43.170Z,43.30
2019-04-22T20:26:59.400Z,43.50
2019-04-22T20:30:55.942Z,43.80
2019-04-22T20:35:04.081Z,44.40
2019-04-22T20:38:59.414Z,44.90
2019-04-22T20:43:10.475Z,45.30
2019-04-22T20:47:09.061Z,45.80
2019-04-22T20:51:12.469Z,46.00
2019-04-22T20:55:13.094Z,46.30
2019-04-22T20:59:18.056Z,47.00
2019-04-22T21:03:15.996Z,47.30
2019-04-22T21:07:25.769Z,48.00
2019-04-22T21:11:29.997Z,48.20
2019-04-22T21:15:47.258Z,48.20
2019-04-22T21:19:47.914Z,49.00
2019-04-22T21:23:36.606Z,49.10
2019-04-22T21:27:52.575Z,49.40
2019-04-22T21:31:52.733Z,49.60
2019-04-22T21:36:12.155Z,49.90
2019-04-22T21:39:51.920Z,50.30
2019-04-22T21:44:05.514Z,50.60
2019-04-22T21:48:15.492Z,51.30
2019-04-22T21:52:29.395Z,51.40
2019-04-22T21:56:56.612Z,52.00
2019-04-22T22:00:57.786Z,52.40
2019-04-22T22:04:54.257Z,52.60
2019-04-22T22:09:02.455Z,52.80
2019-04-22T22:13:06.690Z,53.30
2019-04-22T22:17:01.607Z,53.60
2019-04-22T22:21:38.206Z,53.80
2019-04-22T22:25:20.140Z,54.00
2019-04-22T22:33:26.352Z,54.70
2019-04-22T22:37:18.455Z,54.80
2019-04-22T22:41:12.123Z,55.20
2019-04-22T22:45:26.163Z,55.70
2019-04-22T22:49:42.775Z,56.00
2019-04-22T22:53:46.326Z,55.70
2019-04-22T22:57:56.622Z,56.10
2019-04-22T23:01:52.249Z,56.30
2019-04-22T23:05:57.225Z,56.10
2019-04-22T23:10:00.250Z,56.30
2019-04-22T23:14:05.319Z,56.90
2019-04-22T23:17:45.758Z,57.00
2019-04-22T23:21:52.657Z,56.70
2019-04-22T23:26:10.317Z,57.00
2019-04-22T23:30:05.353Z,57.20
2019-04-22T23:34:17.343Z,57.40
2019-04-22T23:38:21.002Z,57.80
2019-04-22T23:42:27.262Z,58.00
2019-04-22T23:46:30.405Z,58.20
2019-04-22T23:50:37.812Z,58.40
2019-04-22T23:54:49.650Z,59.00
